Time;durP1;ratioP1;P1;durP2;ratioP2;P2;SDS_P1;SDS_P2;PMS_P1;PMS_P2;Temp;Humidity;BMP_temperature;BMP_pressure;BME280_temperature;BME280_humidity;BME280_pressure;Samples;Min_cycle;Max_cycle;Signal;HPM_P1;HPM_P2
2023/07/07 00:00:26;;;;;;;3.03;2.33;;;;;;;;;;5051424;28;20293;-31
2023/07/07 00:02:53;;;;;;;2.70;2.20;;;;;;;;;;5051241;28;20673;-30
2023/07/07 00:05:20;;;;;;;2.40;2.20;;;;;;;;;;5043962;28;20209;-29
2023/07/07 00:07:48;;;;;;;3.73;2.23;;;;;;;;;;5043430;28;20371;-30
2023/07/07 00:10:16;;;;;;;2.43;2.23;;;;;;;;;;5040057;28;20571;-27
2023/07/07 00:12:43;;;;;;;3.10;2.17;;;;;;;;;;5042666;28;20206;-31
2023/07/07 00:15:10;;;;;;;3.37;2.10;;;;;;;;;;5050780;28;20223;-29
2023/07/07 00:17:41;;;;;;;2.40;2.20;;;;;;;;;;5050631;28;20236;-30
2023/07/07 00:20:10;;;;;;;3.20;2.00;;;;;;;;;;5040350;28;20614;-29
2023/07/07 00:22:38;;;;;;;3.60;2.33;;;;;;;;;;5044383;28;20205;-27
2023/07/07 00:25:06;;;;;;;3.10;2.57;;;;;;;;;;5037687;28;20297;-28
2023/07/07 00:27:33;;;;;;;2.83;2.30;;;;;;;;;;5047244;28;20233;-31
2023/07/07 00:30:02;;;;;;;2.57;2.13;;;;;;;;;;5052009;28;20241;-28
2023/07/07 00:32:30;;;;;;;2.60;2.40;;;;;;;;;;5046710;28;20201;-31
2023/07/07 00:34:59;;;;;;;3.57;2.33;;;;;;;;;;5042004;28;20263;-28
2023/07/07 00:37:26;;;;;;;2.97;1.93;;;;;;;;;;5048523;28;20212;-29
2023/07/07 00:39:53;;;;;;;2.70;2.20;;;;;;;;;;5046148;28;20615;-28
2023/07/07 00:42:20;;;;;;;2.97;2.07;;;;;;;;;;5044910;28;20672;-30
2023/07/07 00:45:06;;;;;;;2.43;2.10;;;;;;;;;;5049833;28;20202;-29
2023/07/07 00:47:34;;;;;;;3.77;2.27;;;;;;;;;;5050468;28;20224;-31
2023/07/07 00:50:02;;;;;;;2.83;2.30;;;;;;;;;;5035798;28;20205;-30
2023/07/07 00:52:30;;;;;;;1.93;1.83;;;;;;;;;;5039460;28;20296;-30
2023/07/07 00:54:57;;;;;;;2.40;2.20;;;;;;;;;;5043330;28;20288;-28
2023/07/07 00:57:24;;;;;;;5.33;2.43;;;;;;;;;;5049206;28;20288;-29
2023/07/07 00:59:51;;;;;;;4.43;2.20;;;;;;;;;;5050006;28;20197;-29
2023/07/07 01:02:24;;;;;;;2.50;2.17;;;;;;;;;;5041990;28;20206;-30
2023/07/07 01:04:51;;;;;;;4.70;2.23;;;;;;;;;;5048824;28;20202;-30
2023/07/07 01:07:23;;;;;;;2.43;2.00;;;;;;;;;;5047802;28;20221;-28
2023/07/07 01:09:50;;;;;;;3.03;1.87;;;;;;;;;;5043521;28;20216;-29
2023/07/07 01:12:18;;;;;;;2.00;1.80;;;;;;;;;;5046195;28;20216;-30
2023/07/07 01:14:46;;;;;;;3.00;2.07;;;;;;;;;;5049637;28;20197;-27
2023/07/07 01:17:17;;;;;;;2.50;2.30;;;;;;;;;;5046479;28;20197;-31
2023/07/07 01:20:04;;;;;;;3.00;2.30;;;;;;;;;;5040874;28;20210;-28
2023/07/07 01:22:54;;;;;;;2.70;2.20;;;;;;;;;;5045057;28;20204;-30
2023/07/07 01:25:26;;;;;;;2.37;2.10;;;;;;;;;;5033795;28;20225;-28
2023/07/07 01:28:08;;;;;;;2.90;2.20;;;;;;;;;;5044865;28;20232;-29
2023/07/07 01:30:40;;;;;;;2.47;2.10;;;;;;;;;;5043358;28;20210;-28
2023/07/07 01:33:08;;;;;;;2.87;2.47;;;;;;;;;;5035188;28;20202;-27
2023/07/07 01:35:36;;;;;;;3.47;2.30;;;;;;;;;;5040537;28;20208;-29
2023/07/07 01:38:04;;;;;;;2.33;2.10;;;;;;;;;;5033458;28;20233;-29
2023/07/07 01:40:34;;;;;;;3.10;2.70;;;;;;;;;;5038513;28;20219;-27
2023/07/07 01:43:05;;;;;;;3.17;2.00;;;;;;;;;;5045184;28;20206;-31
2023/07/07 01:45:36;;;;;;;2.37;2.10;;;;;;;;;;5049664;28;20669;-30
2023/07/07 01:48:09;;;;;;;3.23;2.20;;;;;;;;;;5049941;28;20232;-31
2023/07/07 01:50:37;;;;;;;3.30;2.00;;;;;;;;;;5039650;28;20201;-29
2023/07/07 01:53:08;;;;;;;2.70;2.23;;;;;;;;;;5050917;28;20208;-29
2023/07/07 01:55:37;;;;;;;2.50;2.30;;;;;;;;;;5041406;28;20221;-28
2023/07/07 01:58:05;;;;;;;2.53;2.30;;;;;;;;;;5042665;28;20218;-27
2023/07/07 02:00:33;;;;;;;3.83;2.40;;;;;;;;;;5049875;28;20202;-27
2023/07/07 02:03:01;;;;;;;3.53;2.30;;;;;;;;;;5047820;28;20212;-29
2023/07/07 02:05:29;;;;;;;3.17;2.20;;;;;;;;;;5041771;28;20298;-30
2023/07/07 02:07:56;;;;;;;2.43;2.23;;;;;;;;;;5039845;28;20308;-30
2023/07/07 02:10:24;;;;;;;3.20;2.33;;;;;;;;;;5042194;28;20214;-31
2023/07/07 02:12:51;;;;;;;2.53;2.23;;;;;;;;;;5047685;28;20205;-31
2023/07/07 02:15:18;;;;;;;2.20;2.00;;;;;;;;;;5049430;28;20296;-30
2023/07/07 02:17:45;;;;;;;3.73;2.27;;;;;;;;;;5031483;28;20253;-29
2023/07/07 02:20:12;;;;;;;4.87;2.50;;;;;;;;;;5040507;28;20205;-31
2023/07/07 02:22:41;;;;;;;2.17;1.80;;;;;;;;;;5047897;28;20198;-28
2023/07/07 02:25:08;;;;;;;3.03;2.00;;;;;;;;;;5044726;28;20220;-30
2023/07/07 02:27:36;;;;;;;3.73;2.03;;;;;;;;;;5051289;28;20229;-30
2023/07/07 02:30:03;;;;;;;4.07;2.07;;;;;;;;;;5049701;28;20205;-28
2023/07/07 02:32:30;;;;;;;2.30;2.07;;;;;;;;;;5053557;28;20196;-31
2023/07/07 02:34:59;;;;;;;2.80;2.53;;;;;;;;;;5044779;28;20201;-30
2023/07/07 02:37:26;;;;;;;3.73;2.07;;;;;;;;;;5043138;28;20198;-32
2023/07/07 02:39:55;;;;;;;2.60;2.30;;;;;;;;;;5046305;28;20201;-30
2023/07/07 02:42:22;;;;;;;3.90;2.37;;;;;;;;;;5052402;28;20205;-29
2023/07/07 02:44:49;;;;;;;2.50;2.30;;;;;;;;;;5052449;28;20211;-29
2023/07/07 02:47:17;;;;;;;2.50;2.23;;;;;;;;;;5039165;28;20221;-30
2023/07/07 02:49:44;;;;;;;2.50;2.27;;;;;;;;;;5043748;28;20228;-31
2023/07/07 02:52:11;;;;;;;3.00;2.57;;;;;;;;;;5053094;28;20209;-27
2023/07/07 02:54:38;;;;;;;2.50;2.30;;;;;;;;;;5047436;28;20216;-31
2023/07/07 02:57:07;;;;;;;2.27;2.07;;;;;;;;;;5047390;28;20228;-30
2023/07/07 02:59:34;;;;;;;2.40;2.20;;;;;;;;;;5048477;28;20220;-30
2023/07/07 03:02:02;;;;;;;3.87;2.17;;;;;;;;;;5052699;28;20218;-27
2023/07/07 03:04:29;;;;;;;3.57;2.30;;;;;;;;;;5041871;28;20225;-30
2023/07/07 03:06:56;;;;;;;2.57;2.37;;;;;;;;;;5050247;28;20223;-31
2023/07/07 03:09:23;;;;;;;2.67;2.30;;;;;;;;;;5046149;28;20221;-27
2023/07/07 03:11:50;;;;;;;3.53;2.27;;;;;;;;;;5042261;28;20237;-29
2023/07/07 03:14:20;;;;;;;3.13;2.20;;;;;;;;;;5048811;28;20210;-29
2023/07/07 03:16:51;;;;;;;4.47;2.57;;;;;;;;;;5043876;28;20203;-30
2023/07/07 03:19:18;;;;;;;3.27;2.50;;;;;;;;;;5035004;28;20232;-27
2023/07/07 03:21:46;;;;;;;2.87;2.27;;;;;;;;;;5051314;28;20215;-30
2023/07/07 03:24:14;;;;;;;3.17;2.53;;;;;;;;;;5041368;28;20211;-30
2023/07/07 03:26:41;;;;;;;2.43;2.20;;;;;;;;;;5044719;28;20208;-30
2023/07/07 03:29:09;;;;;;;2.83;2.10;;;;;;;;;;5041545;28;20223;-28
2023/07/07 03:31:37;;;;;;;3.20;2.13;;;;;;;;;;5051342;28;20215;-29
2023/07/07 03:34:07;;;;;;;2.80;2.53;;;;;;;;;;5048767;28;20203;-27
2023/07/07 03:36:35;;;;;;;3.67;2.50;;;;;;;;;;5047931;28;20204;-28
2023/07/07 03:39:02;;;;;;;2.50;2.30;;;;;;;;;;5042920;28;20278;-29
2023/07/07 03:41:30;;;;;;;3.77;2.30;;;;;;;;;;5044766;28;20412;-27
2023/07/07 03:43:58;;;;;;;3.53;2.30;;;;;;;;;;5054036;28;20695;-30
2023/07/07 03:46:26;;;;;;;3.80;2.50;;;;;;;;;;5038194;28;20292;-26
2023/07/07 03:48:55;;;;;;;3.03;2.53;;;;;;;;;;5040722;28;20233;-30
2023/07/07 03:51:23;;;;;;;4.43;2.73;;;;;;;;;;5046920;28;20256;-29
2023/07/07 03:53:51;;;;;;;2.60;2.40;;;;;;;;;;5054190;28;20211;-28
2023/07/07 03:56:18;;;;;;;3.40;2.50;;;;;;;;;;5046522;28;20207;-27
2023/07/07 03:58:45;;;;;;;3.93;2.97;;;;;;;;;;5051893;28;20231;-30
2023/07/07 04:01:13;;;;;;;4.73;2.70;;;;;;;;;;5046066;28;20206;-31
2023/07/07 04:03:41;;;;;;;3.20;2.90;;;;;;;;;;5044998;28;20215;-28
2023/07/07 04:06:10;;;;;;;5.73;2.77;;;;;;;;;;5053934;28;20266;-28
2023/07/07 04:08:37;;;;;;;4.73;2.33;;;;;;;;;;5053670;28;20223;-29
2023/07/07 04:11:05;;;;;;;2.80;2.50;;;;;;;;;;5043389;28;20203;-30
2023/07/07 04:13:33;;;;;;;3.70;2.43;;;;;;;;;;5048572;28;20212;-29
2023/07/07 04:16:01;;;;;;;3.87;2.90;;;;;;;;;;5050637;28;20208;-27
2023/07/07 04:18:31;;;;;;;2.80;2.40;;;;;;;;;;5047250;28;20224;-30
2023/07/07 04:20:59;;;;;;;2.63;2.43;;;;;;;;;;5043994;28;20242;-29
2023/07/07 04:23:28;;;;;;;2.30;2.10;;;;;;;;;;5048981;28;20208;-27
2023/07/07 04:25:55;;;;;;;2.60;2.27;;;;;;;;;;5037592;28;20659;-28
2023/07/07 04:28:22;;;;;;;3.93;2.63;;;;;;;;;;5049179;28;20258;-27
2023/07/07 04:30:53;;;;;;;2.37;2.17;;;;;;;;;;5053271;28;20200;-29
2023/07/07 04:33:20;;;;;;;3.33;2.17;;;;;;;;;;5035933;28;20200;-30
2023/07/07 04:35:52;;;;;;;3.07;2.43;;;;;;;;;;5043973;28;20211;-24
2023/07/07 04:38:20;;;;;;;3.03;2.17;;;;;;;;;;5052191;28;20224;-27
2023/07/07 04:40:49;;;;;;;3.40;2.73;;;;;;;;;;5043287;28;20290;-26
2023/07/07 04:43:16;;;;;;;3.20;2.13;;;;;;;;;;5051731;28;20211;-25
2023/07/07 04:45:46;;;;;;;3.43;2.73;;;;;;;;;;5050072;28;20805;-26
2023/07/07 04:48:14;;;;;;;2.77;2.53;;;;;;;;;;5045060;28;20231;-26
2023/07/07 04:50:41;;;;;;;3.13;2.40;;;;;;;;;;5052028;28;20208;-26
2023/07/07 04:53:08;;;;;;;2.70;2.33;;;;;;;;;;5046426;28;20211;-29
2023/07/07 04:55:40;;;;;;;3.80;2.57;;;;;;;;;;5044682;28;20212;-26
2023/07/07 04:58:09;;;;;;;4.83;2.33;;;;;;;;;;5048027;28;20238;-25
2023/07/07 05:00:36;;;;;;;2.40;2.20;;;;;;;;;;5052555;28;20215;-26
2023/07/07 05:03:04;;;;;;;3.93;2.67;;;;;;;;;;5039159;28;20212;-25
2023/07/07 05:05:31;;;;;;;3.33;2.50;;;;;;;;;;5043139;28;20672;-29
2023/07/07 05:07:58;;;;;;;3.23;2.40;;;;;;;;;;5051108;28;20220;-25
2023/07/07 05:10:25;;;;;;;3.00;2.47;;;;;;;;;;5045246;28;20579;-24
2023/07/07 05:12:52;;;;;;;4.03;2.40;;;;;;;;;;5050387;28;20202;-28
2023/07/07 05:15:20;;;;;;;3.07;2.63;;;;;;;;;;5043848;28;20209;-28
2023/07/07 05:17:49;;;;;;;5.67;2.23;;;;;;;;;;5034736;28;20312;-27
2023/07/07 05:20:16;;;;;;;3.43;2.63;;;;;;;;;;5044504;28;20268;-26
2023/07/07 05:22:43;;;;;;;2.60;2.23;;;;;;;;;;5052371;28;20213;-25
2023/07/07 05:25:10;;;;;;;3.30;2.63;;;;;;;;;;5047356;28;20209;-29
2023/07/07 05:27:37;;;;;;;3.93;2.50;;;;;;;;;;5047443;28;20211;-28
2023/07/07 05:30:04;;;;;;;3.33;2.60;;;;;;;;;;5052833;28;20213;-29
2023/07/07 05:32:33;;;;;;;2.80;2.40;;;;;;;;;;5033599;28;20204;-26
2023/07/07 05:35:00;;;;;;;2.93;2.47;;;;;;;;;;5044826;28;20300;-26
2023/07/07 05:37:27;;;;;;;3.40;2.80;;;;;;;;;;5051567;28;20201;-27
2023/07/07 05:39:54;;;;;;;3.90;2.87;;;;;;;;;;5048521;28;20213;-26
2023/07/07 05:42:21;;;;;;;3.43;2.50;;;;;;;;;;5043809;28;20202;-26
2023/07/07 05:44:48;;;;;;;4.23;2.43;;;;;;;;;;5049910;28;20194;-28
2023/07/07 05:47:16;;;;;;;3.13;2.80;;;;;;;;;;5032986;28;20416;-29
2023/07/07 05:49:45;;;;;;;3.00;2.80;;;;;;;;;;5041358;28;20225;-26
2023/07/07 05:52:14;;;;;;;4.80;3.10;;;;;;;;;;5050047;28;20186;-26
2023/07/07 05:54:41;;;;;;;2.83;2.63;;;;;;;;;;5050882;28;20197;-26
2023/07/07 05:57:08;;;;;;;6.23;3.07;;;;;;;;;;5050732;28;20201;-28
2023/07/07 05:59:35;;;;;;;3.33;2.90;;;;;;;;;;5051734;28;20228;-28
2023/07/07 06:02:02;;;;;;;7.05;2.78;;;;;;;;;;5044329;28;20202;-27
2023/07/07 06:04:29;;;;;;;3.10;2.80;;;;;;;;;;5049592;28;20210;-27
2023/07/07 06:06:58;;;;;;;3.47;2.75;;;;;;;;;;5050497;28;20216;-28
2023/07/07 06:09:25;;;;;;;3.22;2.92;;;;;;;;;;5045773;28;20229;-29
2023/07/07 06:11:52;;;;;;;4.53;2.80;;;;;;;;;;5050722;28;20233;-27
2023/07/07 06:14:19;;;;;;;3.10;2.80;;;;;;;;;;5055763;28;20527;-28
2023/07/07 06:16:46;;;;;;;5.30;2.75;;;;;;;;;;5045487;28;20202;-28
2023/07/07 06:19:13;;;;;;;3.50;3.03;;;;;;;;;;5053627;28;20237;-27
2023/07/07 06:21:47;;;;;;;3.73;2.43;;;;;;;;;;5055342;28;20194;-28
2023/07/07 06:24:16;;;;;;;3.23;2.93;;;;;;;;;;5050352;28;20231;-27
2023/07/07 06:26:44;;;;;;;4.43;2.90;;;;;;;;;;5051635;28;20202;-27
2023/07/07 06:29:12;;;;;;;3.70;2.60;;;;;;;;;;5049012;28;20321;-26
2023/07/07 06:31:39;;;;;;;7.78;3.17;;;;;;;;;;5046408;28;20680;-28
2023/07/07 06:34:06;;;;;;;5.25;3.20;;;;;;;;;;5055011;28;20194;-28
2023/07/07 06:36:33;;;;;;;3.65;2.63;;;;;;;;;;5055332;28;20300;-28
2023/07/07 06:39:00;;;;;;;3.50;2.50;;;;;;;;;;5050811;28;20222;-28
2023/07/07 06:41:29;;;;;;;3.35;2.97;;;;;;;;;;5046008;28;20636;-29
2023/07/07 06:43:56;;;;;;;3.78;2.65;;;;;;;;;;5054815;28;20210;-28
2023/07/07 06:46:25;;;;;;;4.55;2.60;;;;;;;;;;5054723;28;20691;-29
2023/07/07 06:48:52;;;;;;;3.95;3.10;;;;;;;;;;5050928;28;20256;-29
2023/07/07 06:51:19;;;;;;;3.08;2.78;;;;;;;;;;5040496;28;20211;-27
2023/07/07 06:53:46;;;;;;;3.88;2.97;;;;;;;;;;5046021;28;20234;-26
2023/07/07 06:56:13;;;;;;;3.00;2.70;;;;;;;;;;5048748;28;20206;-27
2023/07/07 06:58:42;;;;;;;3.50;2.97;;;;;;;;;;5051569;28;20229;-26
2023/07/07 07:01:11;;;;;;;5.60;3.20;;;;;;;;;;5055060;28;20210;-26
2023/07/07 07:03:39;;;;;;;3.95;2.90;;;;;;;;;;5042219;28;20204;-27
2023/07/07 07:06:06;;;;;;;5.25;2.83;;;;;;;;;;5051850;28;20258;-26
2023/07/07 07:08:33;;;;;;;3.17;2.88;;;;;;;;;;5045173;28;20296;-25
2023/07/07 07:11:01;;;;;;;3.67;2.72;;;;;;;;;;5048661;28;20209;-26
2023/07/07 07:13:33;;;;;;;3.80;3.15;;;;;;;;;;5041647;28;20264;-29
2023/07/07 07:16:03;;;;;;;11.10;3.13;;;;;;;;;;5053917;28;20731;-31
2023/07/07 07:18:30;;;;;;;5.07;3.17;;;;;;;;;;5166169;23;20226;-29
2023/07/07 07:20:57;;;;;;;4.28;2.83;;;;;;;;;;5098630;28;20203;-29
2023/07/07 07:23:25;;;;;;;3.47;3.13;;;;;;;;;;5106516;28;20206;-30
2023/07/07 07:25:52;;;;;;;4.35;2.88;;;;;;;;;;5100040;28;20202;-31
2023/07/07 07:28:19;;;;;;;3.47;2.75;;;;;;;;;;5104420;28;20225;-28
2023/07/07 07:30:46;;;;;;;3.10;2.83;;;;;;;;;;5115571;28;20804;-31
2023/07/07 07:33:15;;;;;;;3.92;2.90;;;;;;;;;;5111962;28;20228;-29
2023/07/07 07:35:43;;;;;;;4.07;3.00;;;;;;;;;;5115177;28;20210;-30
2023/07/07 07:38:10;;;;;;;2.50;2.30;;;;;;;;;;5100656;28;20591;-28
2023/07/07 07:40:37;;;;;;;3.60;2.67;;;;;;;;;;5091631;28;20209;-32
2023/07/07 07:43:04;;;;;;;4.50;2.97;;;;;;;;;;5101135;28;20207;-28
2023/07/07 07:45:31;;;;;;;4.28;3.33;;;;;;;;;;5095119;28;20242;-29
2023/07/07 07:47:58;;;;;;;4.13;3.08;;;;;;;;;;5099034;28;20220;-31
2023/07/07 07:50:28;;;;;;;3.85;3.15;;;;;;;;;;5110226;28;20227;-31
2023/07/07 07:52:56;;;;;;;5.40;3.20;;;;;;;;;;5098245;28;20196;-31
2023/07/07 07:55:23;;;;;;;4.22;3.08;;;;;;;;;;5092194;28;20196;-28
2023/07/07 07:57:50;;;;;;;3.33;2.58;;;;;;;;;;5105477;28;20238;-30
2023/07/07 08:00:18;;;;;;;3.45;3.10;;;;;;;;;;5105632;28;20200;-29
2023/07/07 08:02:45;;;;;;;4.55;3.20;;;;;;;;;;5100922;28;20204;-31
2023/07/07 08:05:12;;;;;;;4.22;3.10;;;;;;;;;;5099251;28;20200;-28
2023/07/07 08:07:41;;;;;;;4.95;3.20;;;;;;;;;;5103138;28;20226;-31
2023/07/07 08:10:08;;;;;;;3.22;2.92;;;;;;;;;;5098980;28;20574;-29
2023/07/07 08:12:36;;;;;;;3.33;2.72;;;;;;;;;;5109104;28;20272;-30
2023/07/07 08:15:03;;;;;;;7.25;2.95;;;;;;;;;;5099084;28;20201;-31
2023/07/07 08:17:30;;;;;;;4.32;3.00;;;;;;;;;;5091390;28;20211;-30
2023/07/07 08:19:58;;;;;;;4.63;3.10;;;;;;;;;;5096942;28;20278;-29
2023/07/07 08:22:26;;;;;;;4.05;2.90;;;;;;;;;;5111518;28;20207;-29
2023/07/07 08:24:55;;;;;;;5.10;2.97;;;;;;;;;;5102862;28;20227;-29
2023/07/07 08:27:23;;;;;;;3.65;2.70;;;;;;;;;;5098127;28;20697;-31
2023/07/07 08:29:51;;;;;;;3.78;3.30;;;;;;;;;;5110546;28;20223;-29
2023/07/07 08:32:21;;;;;;;5.68;3.17;;;;;;;;;;5114387;28;20211;-29
2023/07/07 08:34:48;;;;;;;4.75;3.20;;;;;;;;;;5100751;28;20232;-32
2023/07/07 08:37:17;;;;;;;5.43;3.38;;;;;;;;;;5094786;28;20206;-31
2023/07/07 08:39:44;;;;;;;5.78;3.72;;;;;;;;;;5089984;28;20634;-31
2023/07/07 08:42:18;;;;;;;4.32;3.20;;;;;;;;;;5102913;28;20282;-30
2023/07/07 08:44:45;;;;;;;3.53;3.20;;;;;;;;;;5098298;28;20204;-32
2023/07/07 08:47:17;;;;;;;3.17;2.90;;;;;;;;;;5108207;28;20207;-30
2023/07/07 08:49:48;;;;;;;4.93;3.17;;;;;;;;;;5092048;28;20227;-32
2023/07/07 08:52:21;;;;;;;3.05;2.75;;;;;;;;;;5097394;28;20216;-29
2023/07/07 08:55:09;;;;;;;4.00;3.53;;;;;;;;;;5096209;28;20200;-29
2023/07/07 08:57:41;;;;;;;4.00;3.60;;;;;;;;;;5100846;28;20203;-31
2023/07/07 09:00:15;;;;;;;4.93;3.65;;;;;;;;;;5103849;28;20210;-29
2023/07/07 09:02:51;;;;;;;5.85;3.70;;;;;;;;;;5110600;28;20302;-31
2023/07/07 09:05:24;;;;;;;4.20;3.55;;;;;;;;;;5098405;28;20422;-30
2023/07/07 09:07:59;;;;;;;5.18;3.65;;;;;;;;;;5109775;28;20238;-30
2023/07/07 09:10:32;;;;;;;5.72;3.47;;;;;;;;;;5101439;28;20680;-30
2023/07/07 09:13:03;;;;;;;4.95;4.40;;;;;;;;;;5104188;28;20216;-31
2023/07/07 09:15:31;;;;;;;3.85;3.55;;;;;;;;;;5101643;28;20283;-31
2023/07/07 09:18:01;;;;;;;5.65;3.45;;;;;;;;;;5099517;28;20219;-32
2023/07/07 09:20:31;;;;;;;5.75;4.28;;;;;;;;;;5100214;28;20200;-30
2023/07/07 09:23:01;;;;;;;7.63;3.97;;;;;;;;;;5094927;28;20211;-29
2023/07/07 09:25:33;;;;;;;7.35;4.43;;;;;;;;;;5092746;28;20204;-31
2023/07/07 09:28:02;;;;;;;4.85;3.70;;;;;;;;;;5103734;28;20226;-30
2023/07/07 09:30:32;;;;;;;4.82;4.05;;;;;;;;;;5089081;28;20224;-32
2023/07/07 09:32:59;;;;;;;5.78;4.10;;;;;;;;;;5088762;28;20211;-31
2023/07/07 09:35:28;;;;;;;4.88;3.45;;;;;;;;;;5103870;28;20207;-31
2023/07/07 09:38:04;;;;;;;6.47;4.20;;;;;;;;;;5109252;28;20472;-29
2023/07/07 09:40:35;;;;;;;5.00;4.40;;;;;;;;;;5096175;28;20207;-31
2023/07/07 09:43:09;;;;;;;6.88;4.30;;;;;;;;;;5090313;28;20204;-28
2023/07/07 09:45:40;;;;;;;6.10;4.10;;;;;;;;;;5107455;28;20203;-33
2023/07/07 09:48:16;;;;;;;5.65;3.80;;;;;;;;;;5110642;28;20219;-30
2023/07/07 09:50:48;;;;;;;6.50;3.85;;;;;;;;;;5097089;28;20219;-32
2023/07/07 09:53:17;;;;;;;7.38;5.05;;;;;;;;;;5103286;28;20742;-31
2023/07/07 09:55:44;;;;;;;5.22;4.10;;;;;;;;;;5099821;28;20208;-31
2023/07/07 09:58:16;;;;;;;6.80;4.55;;;;;;;;;;5092957;28;20235;-31
2023/07/07 10:00:45;;;;;;;6.13;4.90;;;;;;;;;;5107939;28;20195;-29
2023/07/07 10:03:16;;;;;;;6.43;4.95;;;;;;;;;;5109181;28;20209;-29
2023/07/07 10:05:44;;;;;;;7.38;4.82;;;;;;;;;;5099222;28;20231;-32
2023/07/07 10:08:13;;;;;;;8.45;5.00;;;;;;;;;;5105520;28;20226;-29
2023/07/07 10:10:40;;;;;;;5.90;4.57;;;;;;;;;;5094988;28;20251;-30
2023/07/07 10:13:09;;;;;;;7.10;4.70;;;;;;;;;;5108125;28;20282;-33
2023/07/07 10:15:48;;;;;;;6.53;4.32;;;;;;;;;;5108039;28;20204;-30
2023/07/07 10:18:17;;;;;;;6.85;4.70;;;;;;;;;;5104195;28;20231;-32
2023/07/07 10:20:45;;;;;;;6.28;4.47;;;;;;;;;;5099906;28;20197;-33
2023/07/07 10:23:13;;;;;;;7.18;4.65;;;;;;;;;;5110001;28;20199;-32
2023/07/07 10:25:40;;;;;;;4.70;4.28;;;;;;;;;;5100574;28;20205;-29
2023/07/07 10:28:10;;;;;;;9.73;5.25;;;;;;;;;;5105481;28;20245;-28
2023/07/07 10:30:38;;;;;;;8.27;4.90;;;;;;;;;;5110071;28;20223;-31
2023/07/07 10:33:06;;;;;;;6.72;5.13;;;;;;;;;;5100511;28;20211;-28
2023/07/07 10:35:34;;;;;;;7.40;5.32;;;;;;;;;;5091499;28;20204;-31
2023/07/07 10:38:05;;;;;;;8.13;5.25;;;;;;;;;;5101080;28;20744;-32
2023/07/07 10:40:32;;;;;;;5.90;5.05;;;;;;;;;;5101999;28;20204;-30
2023/07/07 10:43:00;;;;;;;5.70;5.10;;;;;;;;;;5112481;28;20204;-30
2023/07/07 10:45:28;;;;;;;7.82;6.07;;;;;;;;;;5114331;28;20214;-32
2023/07/07 10:47:55;;;;;;;7.47;6.13;;;;;;;;;;5110639;28;20231;-29
2023/07/07 10:50:26;;;;;;;12.65;7.53;;;;;;;;;;5112838;28;20326;-31
2023/07/07 10:53:00;;;;;;;11.05;6.55;;;;;;;;;;5104925;28;20192;-32
2023/07/07 10:55:35;;;;;;;7.05;5.22;;;;;;;;;;5103356;28;20277;-32
2023/07/07 10:58:11;;;;;;;6.75;5.22;;;;;;;;;;5099680;28;20226;-31
2023/07/07 11:00:43;;;;;;;7.45;5.68;;;;;;;;;;5113420;28;20252;-30
2023/07/07 11:03:31;;;;;;;7.15;4.75;;;;;;;;;;5107372;28;20289;-31
2023/07/07 11:06:03;;;;;;;6.53;5.28;;;;;;;;;;5091952;28;20213;-31
2023/07/07 11:08:35;;;;;;;8.13;5.22;;;;;;;;;;5097385;28;20313;-29
2023/07/07 11:11:11;;;;;;;7.63;5.53;;;;;;;;;;5096741;28;20234;-28
2023/07/07 11:13:48;;;;;;;8.82;6.03;;;;;;;;;;5095034;28;20279;-30
2023/07/07 11:16:19;;;;;;;9.10;5.55;;;;;;;;;;5113444;28;20304;-31
2023/07/07 11:18:56;;;;;;;8.98;5.45;;;;;;;;;;5108877;28;20568;-29
2023/07/07 11:21:32;;;;;;;8.93;6.30;;;;;;;;;;5092654;28;20204;-28
2023/07/07 11:24:11;;;;;;;7.57;5.05;;;;;;;;;;5092576;28;20225;-31
2023/07/07 11:26:44;;;;;;;7.85;5.80;;;;;;;;;;5100170;28;20207;-31
2023/07/07 11:29:17;;;;;;;7.65;5.63;;;;;;;;;;5101056;28;20523;-30
2023/07/07 11:31:52;;;;;;;8.80;6.07;;;;;;;;;;5094010;28;20214;-30
2023/07/07 11:34:28;;;;;;;7.32;5.20;;;;;;;;;;5097313;28;20213;-27
2023/07/07 11:37:02;;;;;;;9.40;5.80;;;;;;;;;;5103499;28;21198;-30
2023/07/07 11:39:38;;;;;;;8.18;5.75;;;;;;;;;;5105635;28;20231;-29
2023/07/07 11:42:16;;;;;;;9.00;5.53;;;;;;;;;;5096678;28;20203;-30
2023/07/07 11:44:50;;;;;;;9.68;6.38;;;;;;;;;;5093095;28;20210;-31
2023/07/07 11:47:36;;;;;;;10.40;6.07;;;;;;;;;;5096390;28;20188;-30
2023/07/07 11:50:13;;;;;;;8.32;5.97;;;;;;;;;;5094677;28;20219;-28
2023/07/07 11:52:48;;;;;;;8.38;6.30;;;;;;;;;;5091967;28;20203;-31
2023/07/07 11:55:32;;;;;;;11.43;5.75;;;;;;;;;;5104458;28;20203;-28
2023/07/07 11:58:06;;;;;;;8.52;5.97;;;;;;;;;;5094306;28;20234;-30
2023/07/07 12:00:43;;;;;;;8.55;5.85;;;;;;;;;;5112340;28;20370;-34
2023/07/07 12:03:22;;;;;;;9.13;6.68;;;;;;;;;;5105841;28;20553;-29
2023/07/07 12:05:50;;;;;;;8.50;5.95;;;;;;;;;;5093508;28;20571;-29
2023/07/07 12:08:21;;;;;;;7.93;5.57;;;;;;;;;;5098154;28;20224;-30
2023/07/07 12:10:51;;;;;;;7.93;5.75;;;;;;;;;;5095758;28;20228;-32
2023/07/07 12:13:22;;;;;;;8.13;6.00;;;;;;;;;;5102158;28;20219;-32
2023/07/07 12:15:51;;;;;;;8.15;5.95;;;;;;;;;;5093484;28;20237;-32
2023/07/07 12:18:20;;;;;;;8.57;5.90;;;;;;;;;;5090210;28;20243;-31
2023/07/07 12:20:48;;;;;;;9.43;5.97;;;;;;;;;;5098706;28;20204;-29
2023/07/07 12:23:17;;;;;;;9.00;6.03;;;;;;;;;;5104918;28;20287;-29
2023/07/07 12:25:46;;;;;;;9.75;5.88;;;;;;;;;;5099621;28;20226;-32
2023/07/07 12:28:14;;;;;;;9.07;6.22;;;;;;;;;;5108094;28;20284;-32
2023/07/07 12:30:45;;;;;;;6.38;5.57;;;;;;;;;;5094327;28;20220;-31
2023/07/07 12:33:13;;;;;;;9.32;6.45;;;;;;;;;;5090681;28;20214;-31
2023/07/07 12:35:44;;;;;;;6.93;5.40;;;;;;;;;;5094431;28;20212;-30
2023/07/07 12:38:17;;;;;;;9.32;5.70;;;;;;;;;;5099356;28;20223;-31
2023/07/07 12:40:46;;;;;;;8.75;5.72;;;;;;;;;;5094769;28;20208;-30
2023/07/07 12:43:21;;;;;;;6.53;5.18;;;;;;;;;;5103241;28;20213;-28
2023/07/07 12:45:49;;;;;;;7.22;5.20;;;;;;;;;;5109501;28;20260;-33
2023/07/07 12:48:19;;;;;;;8.75;5.22;;;;;;;;;;5101170;28;20261;-31
2023/07/07 12:50:48;;;;;;;9.90;6.07;;;;;;;;;;5094240;28;20224;-30
2023/07/07 12:53:26;;;;;;;10.60;6.28;;;;;;;;;;5108777;28;20196;-33
2023/07/07 12:56:03;;;;;;;12.98;6.18;;;;;;;;;;5094311;28;20204;-32
2023/07/07 12:58:43;;;;;;;8.27;5.68;;;;;;;;;;5102759;28;20242;-31
2023/07/07 13:01:29;;;;;;;6.85;5.40;;;;;;;;;;5101620;28;20666;-29
2023/07/07 13:04:03;;;;;;;6.38;4.90;;;;;;;;;;5108297;28;20208;-30
2023/07/07 13:06:35;;;;;;;10.32;6.00;;;;;;;;;;5096882;28;20214;-30
2023/07/07 13:09:17;;;;;;;7.82;5.75;;;;;;;;;;5094218;28;20215;-31
2023/07/07 13:11:46;;;;;;;7.72;5.20;;;;;;;;;;5090526;28;20236;-30
2023/07/07 13:14:27;;;;;;;7.97;5.47;;;;;;;;;;5096221;28;20188;-30
2023/07/07 13:16:55;;;;;;;7.53;5.40;;;;;;;;;;5087459;28;20207;-32
2023/07/07 13:19:22;;;;;;;8.38;5.38;;;;;;;;;;5086163;28;20281;-29
2023/07/07 13:21:50;;;;;;;6.63;5.25;;;;;;;;;;5095737;28;20199;-30
2023/07/07 13:24:19;;;;;;;9.63;5.93;;;;;;;;;;5101427;28;20204;-33
2023/07/07 13:26:47;;;;;;;6.22;5.15;;;;;;;;;;5099096;28;20209;-29
2023/07/07 13:29:14;;;;;;;9.07;5.60;;;;;;;;;;5095366;28;20220;-30
2023/07/07 13:31:43;;;;;;;9.35;5.68;;;;;;;;;;5088036;28;20216;-31
2023/07/07 13:34:13;;;;;;;8.32;5.90;;;;;;;;;;5098742;28;20196;-30
2023/07/07 13:36:40;;;;;;;7.28;5.28;;;;;;;;;;5094877;28;20203;-28
2023/07/07 13:39:09;;;;;;;7.28;4.78;;;;;;;;;;5085554;28;20231;-31
2023/07/07 13:41:36;;;;;;;6.70;5.15;;;;;;;;;;5091490;28;20194;-31
2023/07/07 13:44:05;;;;;;;7.32;5.45;;;;;;;;;;5099326;28;20203;-29
2023/07/07 13:46:33;;;;;;;7.53;5.10;;;;;;;;;;5106974;28;20304;-28
2023/07/07 13:49:02;;;;;;;6.95;4.50;;;;;;;;;;5102361;28;20743;-31
2023/07/07 13:51:30;;;;;;;5.97;4.88;;;;;;;;;;5089223;28;20711;-28
2023/07/07 13:53:58;;;;;;;6.25;4.38;;;;;;;;;;5086039;28;20693;-28
2023/07/07 13:56:25;;;;;;;7.13;4.88;;;;;;;;;;5091244;28;20594;-30
2023/07/07 13:58:53;;;;;;;6.82;4.68;;;;;;;;;;5089787;28;20216;-28
2023/07/07 14:01:24;;;;;;;7.85;4.93;;;;;;;;;;5088989;28;20200;-30
2023/07/07 14:03:51;;;;;;;6.20;4.38;;;;;;;;;;5100814;28;20204;-31
2023/07/07 14:06:25;;;;;;;6.63;4.45;;;;;;;;;;5091144;28;20235;-31
2023/07/07 14:08:52;;;;;;;7.30;5.00;;;;;;;;;;5097230;28;20220;-30
2023/07/07 14:11:21;;;;;;;10.20;5.35;;;;;;;;;;5096912;28;20554;-28
2023/07/07 14:13:53;;;;;;;7.20;4.95;;;;;;;;;;5100443;28;20200;-29
2023/07/07 14:16:24;;;;;;;6.18;4.68;;;;;;;;;;5094322;28;20197;-31
2023/07/07 14:18:55;;;;;;;6.85;5.10;;;;;;;;;;5092040;28;20242;-29
2023/07/07 14:21:23;;;;;;;6.35;4.90;;;;;;;;;;5095076;28;20558;-30
2023/07/07 14:23:50;;;;;;;11.65;5.13;;;;;;;;;;5101376;28;20201;-29
2023/07/07 14:26:19;;;;;;;6.13;4.53;;;;;;;;;;5101298;28;20228;-30
2023/07/07 14:28:46;;;;;;;7.45;4.22;;;;;;;;;;5101877;28;20220;-29
2023/07/07 14:31:14;;;;;;;8.05;4.90;;;;;;;;;;5094602;28;20224;-27
2023/07/07 14:33:43;;;;;;;6.72;4.60;;;;;;;;;;5094763;28;20565;-29
2023/07/07 14:36:18;;;;;;;6.88;4.72;;;;;;;;;;5097363;28;20196;-28
2023/07/07 14:38:49;;;;;;;6.78;4.47;;;;;;;;;;5099918;28;20331;-30
2023/07/07 14:41:19;;;;;;;6.18;3.90;;;;;;;;;;5104230;28;20287;-29
2023/07/07 14:43:46;;;;;;;22.27;5.15;;;;;;;;;;5094907;28;20211;-31
2023/07/07 14:46:17;;;;;;;9.15;5.10;;;;;;;;;;5092345;28;20212;-30
2023/07/07 14:48:48;;;;;;;7.05;5.00;;;;;;;;;;5090244;28;20230;-30
2023/07/07 14:51:19;;;;;;;5.43;4.78;;;;;;;;;;5103006;28;20209;-32
2023/07/07 14:53:46;;;;;;;5.57;4.70;;;;;;;;;;5108162;28;20238;-31
2023/07/07 14:56:14;;;;;;;5.93;4.50;;;;;;;;;;5098879;28;20207;-33